West Yellowstone, Montana
Current Conditions -  °F | °C
As of 6:30 AM on Sunday 21 Dec 2014 (Local Time) from KDIJ Reporting Station
Haze Haze  
Wind Chill: 25°   Ceiling: 2300
Heat Index: 34°   Visibility: 5mi
Dew Point: 30°   Wind: 13mph
Humidity: 87%   Direction: 170°S
Pressure: 29.74"   Gusts: NA
Location:  44.66°N, 111.1°W
Report Text: KDIJ 211330Z AUTO 17011KT 5SM BR SCT001 OVC023 01/M01 A2974 RMK AO2 SNE26 P0000
Loading
Personal Weather Stations






























Interactive Weather Map New forecast layout! Learn more

10-Day Weather Forecast

Advertisements
Track Severe Weather on mobile